Sand Springs, Montana
Current Conditions -  °F | °C
As of 11:35 AM on Friday 28 Nov 2014 (Local Time) from KMVH Reporting Station
Clear Clear  
Wind Chill: 13°   Ceiling: Unl
Heat Index: 13°   Visibility: 10mi
Dew Point: -1°   Wind: 21mph
Humidity: 38%   Direction: 250°WSW
Pressure: 29.51"   Gusts: 29mph
Location:  47.1°N, 107.49°W
Report Text: KMVH 281835Z AUTO 25018G25KT 10SM CLR 13/M01 A2951 RMK A01
Loading
Personal Weather Stations






























Interactive Weather Map New forecast layout! Learn more

10-Day Weather Forecast

Advertisements
Track Severe Weather on mobile